createdAt,value
2022-09-07T00:00:44.733Z,7.72
2022-09-07T00:03:12.009Z,6.82
2022-09-07T00:05:46.672Z,7.63
2022-09-07T00:08:15.366Z,8.65
2022-09-07T00:10:51.000Z,7.65
2022-09-07T00:13:18.110Z,8.30
2022-09-07T00:15:45.426Z,7.78
2022-09-07T00:18:12.674Z,7.63
2022-09-07T00:20:39.902Z,10.15
2022-09-07T00:23:07.060Z,7.13
2022-09-07T00:25:39.217Z,10.45
2022-09-07T00:28:08.056Z,8.98
2022-09-07T00:30:42.201Z,9.10
2022-09-07T00:33:09.744Z,10.52
2022-09-07T00:35:41.094Z,7.72
2022-09-07T00:38:09.491Z,7.88
2022-09-07T00:40:36.881Z,7.13
2022-09-07T00:43:04.954Z,8.75
2022-09-07T00:45:32.288Z,7.38
2022-09-07T00:48:04.938Z,7.95
2022-09-07T00:50:41.086Z,7.73
2022-09-07T00:53:29.858Z,7.22
2022-09-07T00:55:59.963Z,8.35
2022-09-07T00:58:28.074Z,7.18
2022-09-07T01:00:56.105Z,8.77
2022-09-07T01:03:28.799Z,7.93
2022-09-07T01:06:02.757Z,8.38
2022-09-07T01:08:30.720Z,8.65
2022-09-07T01:10:59.418Z,10.90
2022-09-07T01:13:30.267Z,8.10
2022-09-07T01:16:39.311Z,9.27
2022-09-07T01:19:16.616Z,9.00
2022-09-07T01:22:26.677Z,8.68
2022-09-07T01:25:19.263Z,8.48
2022-09-07T01:28:01.719Z,8.70
2022-09-07T01:30:32.028Z,9.80
2022-09-07T01:33:23.627Z,8.15
2022-09-07T01:36:12.522Z,9.77
2022-09-07T01:38:47.931Z,7.90
2022-09-07T01:41:24.842Z,9.43
2022-09-07T01:43:58.011Z,9.75
2022-09-07T01:46:37.420Z,11.10
2022-09-07T01:49:33.817Z,10.57
2022-09-07T01:52:08.756Z,8.48
2022-09-07T01:54:45.597Z,8.18
2022-09-07T01:57:22.953Z,8.13
2022-09-07T02:00:18.624Z,10.00
2022-09-07T02:03:17.886Z,10.63
2022-09-07T02:05:45.003Z,8.30
2022-09-07T02:08:35.019Z,9.20
2022-09-07T02:11:07.403Z,13.77
2022-09-07T02:13:40.102Z,10.25
2022-09-07T02:16:20.627Z,7.53
2022-09-07T02:18:53.301Z,9.45
2022-09-07T02:21:24.887Z,7.27
2022-09-07T02:23:58.253Z,9.98
2022-09-07T02:26:28.020Z,10.45
2022-09-07T02:28:55.996Z,9.57
2022-09-07T02:31:23.290Z,10.77
2022-09-07T02:33:50.460Z,8.77
2022-09-07T02:36:22.607Z,7.45
2022-09-07T02:38:50.010Z,8.55
2022-09-07T02:41:41.552Z,11.02
2022-09-07T02:44:25.141Z,10.40
2022-09-07T02:47:10.527Z,10.20
2022-09-07T02:49:59.540Z,8.65
2022-09-07T02:52:45.486Z,9.90
2022-09-07T02:55:30.897Z,10.13
2022-09-07T02:58:29.240Z,8.60
2022-09-07T03:01:18.651Z,9.40
2022-09-07T03:04:00.853Z,9.45
2022-09-07T03:06:55.559Z,11.07
2022-09-07T03:09:28.240Z,9.98
2022-09-07T03:11:55.631Z,9.30
2022-09-07T03:14:26.097Z,9.45
2022-09-07T03:16:57.259Z,10.30
2022-09-07T03:19:24.502Z,14.38
2022-09-07T03:21:51.964Z,8.13
2022-09-07T03:24:19.539Z,10.13
2022-09-07T03:26:52.068Z,8.90
2022-09-07T03:29:19.405Z,8.05
2022-09-07T03:31:46.721Z,12.20
2022-09-07T03:34:14.068Z,10.85
2022-09-07T03:36:41.225Z,9.18
2022-09-07T03:39:10.111Z,9.15
2022-09-07T03:41:37.282Z,9.10
2022-09-07T03:44:05.785Z,10.15
2022-09-07T03:46:34.472Z,8.68
2022-09-07T03:49:01.750Z,9.32
2022-09-07T03:51:28.963Z,9.90
2022-09-07T03:53:56.152Z,9.10
2022-09-07T03:56:24.943Z,11.88
2022-09-07T03:58:54.407Z,10.43
2022-09-07T04:01:24.915Z,11.75
2022-09-07T04:03:53.534Z,9.73
2022-09-07T04:06:20.902Z,11.40
2022-09-07T04:08:48.193Z,11.50
2022-09-07T04:11:17.937Z,9.95
2022-09-07T04:13:46.132Z,11.57
2022-09-07T04:16:17.703Z,10.35
2022-09-07T04:18:45.559Z,12.50
2022-09-07T04:21:13.615Z,8.07
2022-09-07T04:23:42.573Z,12.13
2022-09-07T04:26:21.991Z,10.20
2022-09-07T04:28:49.732Z,9.48
2022-09-07T04:31:18.296Z,12.80
2022-09-07T04:33:46.925Z,9.13
2022-09-07T04:36:15.410Z,9.82
2022-09-07T04:38:42.879Z,10.27
2022-09-07T04:41:13.238Z,10.55
2022-09-07T04:43:43.366Z,10.30
2022-09-07T04:46:21.965Z,13.35
2022-09-07T04:48:54.874Z,10.88
2022-09-07T04:51:23.984Z,9.55
2022-09-07T04:53:53.097Z,10.13
2022-09-07T04:56:21.188Z,11.85
2022-09-07T04:58:49.651Z,9.55
2022-09-07T05:01:20.037Z,11.07
2022-09-07T05:03:48.258Z,12.27
2022-09-07T05:06:16.876Z,10.10
2022-09-07T05:08:47.452Z,11.27
2022-09-07T05:11:16.021Z,10.80
2022-09-07T05:13:43.618Z,15.23
2022-09-07T05:16:23.552Z,12.10
2022-09-07T05:18:53.459Z,11.63
2022-09-07T05:21:23.624Z,11.65
2022-09-07T05:23:52.587Z,12.10
2022-09-07T05:26:22.244Z,13.55
2022-09-07T05:28:50.707Z,15.45
2022-09-07T05:31:20.764Z,14.40
2022-09-07T05:36:39.477Z,12.00
2022-09-07T05:39:07.753Z,12.00
2022-09-07T05:41:35.378Z,12.60
2022-09-07T05:46:52.338Z,12.25
2022-09-07T05:49:19.513Z,14.82
2022-09-07T05:51:47.056Z,15.63
2022-09-07T05:54:14.483Z,14.57
2022-09-07T05:56:41.641Z,19.02
2022-09-07T05:59:08.908Z,12.90
2022-09-07T06:01:36.222Z,16.45
2022-09-07T06:04:03.441Z,13.90
2022-09-07T06:06:31.247Z,12.40
2022-09-07T06:08:58.530Z,12.93
2022-09-07T06:11:27.458Z,13.77
2022-09-07T06:13:54.830Z,11.95
2022-09-07T06:16:22.888Z,13.88
2022-09-07T06:18:50.385Z,13.68
2022-09-07T06:21:23.355Z,13.63
2022-09-07T06:23:51.442Z,14.23
2022-09-07T06:26:19.648Z,16.92
2022-09-07T06:28:52.087Z,12.77
2022-09-07T06:31:23.384Z,14.38
2022-09-07T06:33:51.687Z,17.15
2022-09-07T06:36:21.556Z,16.73
2022-09-07T06:38:50.107Z,12.07
2022-09-07T06:44:18.790Z,14.70
2022-09-07T06:49:28.885Z,17.00
2022-09-07T06:51:55.993Z,14.85
2022-09-07T06:57:10.409Z,14.77
2022-09-07T06:59:38.685Z,15.27
2022-09-07T07:02:07.171Z,12.90
2022-09-07T07:04:40.203Z,14.10
2022-09-07T07:09:39.851Z,13.02
2022-09-07T07:12:07.236Z,14.50
2022-09-07T07:14:37.191Z,11.93
2022-09-07T07:17:05.833Z,13.80
2022-09-07T07:19:33.111Z,14.77
2022-09-07T07:24:47.419Z,12.93
2022-09-07T07:27:14.599Z,13.40
2022-09-07T07:29:41.680Z,12.30
2022-09-07T07:32:09.102Z,11.68
2022-09-07T07:34:36.494Z,12.35
2022-09-07T07:37:03.655Z,13.57
2022-09-07T07:42:18.506Z,14.98
2022-09-07T07:44:45.788Z,13.68
2022-09-07T07:47:12.958Z,15.70
2022-09-07T07:49:40.099Z,14.30
2022-09-07T07:54:54.535Z,12.05
2022-09-07T07:57:21.616Z,12.48
2022-09-07T07:59:48.818Z,11.75
2022-09-07T08:02:17.125Z,8.57
2022-09-07T08:04:44.702Z,12.27
2022-09-07T08:07:14.500Z,12.38
2022-09-07T08:09:43.807Z,11.52
2022-09-07T08:12:13.873Z,12.18
2022-09-07T08:14:41.791Z,13.35
2022-09-07T08:17:12.142Z,13.40
2022-09-07T08:19:39.611Z,11.98
2022-09-07T08:22:08.861Z,12.15
2022-09-07T08:24:36.054Z,11.18
2022-09-07T08:27:03.561Z,11.23
2022-09-07T08:29:34.463Z,10.30
2022-09-07T08:32:04.546Z,13.55
2022-09-07T08:34:31.668Z,11.52
2022-09-07T08:36:58.739Z,11.23
2022-09-07T08:39:25.987Z,11.80
2022-09-07T08:42:16.137Z,8.95
2022-09-07T08:44:57.897Z,11.48
2022-09-07T08:47:36.371Z,9.68
2022-09-07T08:50:31.543Z,8.40
2022-09-07T08:53:16.355Z,9.55
2022-09-07T08:56:04.331Z,9.43
2022-09-07T09:07:54.518Z,10.25
2022-09-07T09:10:30.767Z,10.05
2022-09-07T09:12:57.854Z,10.07
2022-09-07T09:15:33.833Z,8.55
2022-09-07T09:18:22.759Z,9.88
2022-09-07T09:20:58.096Z,7.68
2022-09-07T09:23:39.767Z,9.85
2022-09-07T09:26:23.487Z,10.00
2022-09-07T09:31:23.450Z,8.05
2022-09-07T09:34:05.822Z,7.40
2022-09-07T09:36:36.487Z,8.50
2022-09-07T09:39:29.233Z,8.88
2022-09-07T09:41:59.997Z,9.77
2022-09-07T09:44:34.932Z,8.85
2022-09-07T09:49:51.487Z,7.57
2022-09-07T09:52:30.544Z,6.65
2022-09-07T09:55:30.153Z,7.50
2022-09-07T10:04:00.493Z,7.93
2022-09-07T10:06:29.919Z,7.63
2022-09-07T10:09:00.806Z,7.07
2022-09-07T10:12:05.725Z,8.23
2022-09-07T10:14:33.491Z,5.97
2022-09-07T10:17:02.217Z,8.20
2022-09-07T10:19:34.619Z,5.72
2022-09-07T10:22:32.798Z,7.30
2022-09-07T10:25:03.320Z,6.50
2022-09-07T10:27:32.939Z,11.38
2022-09-07T10:30:01.370Z,9.63
2022-09-07T10:32:54.436Z,7.65
2022-09-07T10:35:28.132Z,7.03
2022-09-07T10:38:33.600Z,6.43
2022-09-07T10:41:07.509Z,6.15
2022-09-07T10:43:50.385Z,6.13
2022-09-07T10:47:03.662Z,7.80
2022-09-07T10:53:18.305Z,9.15
2022-09-07T10:56:24.413Z,6.32
2022-09-07T10:59:04.991Z,5.55
2022-09-07T11:02:00.513Z,6.68
2022-09-07T11:04:30.474Z,6.85
2022-09-07T11:07:17.876Z,8.63
2022-09-07T11:10:01.469Z,4.75
2022-09-07T11:15:13.311Z,3.78
2022-09-07T11:17:53.307Z,4.72
2022-09-07T11:20:41.802Z,5.60
2022-09-07T11:23:11.171Z,4.97
2022-09-07T11:26:07.525Z,3.72
2022-09-07T11:32:01.192Z,4.13
2022-09-07T11:34:35.571Z,4.15
2022-09-07T11:37:17.764Z,5.53
2022-09-07T11:39:51.692Z,4.28
2022-09-07T11:45:22.249Z,4.80
2022-09-07T11:48:10.553Z,3.85
2022-09-07T11:50:43.553Z,3.80
2022-09-07T11:53:20.356Z,5.10
2022-09-07T11:55:54.337Z,3.90
2022-09-07T11:58:45.784Z,4.25
2022-09-07T12:01:40.964Z,4.50
2022-09-07T12:04:29.762Z,3.70
2022-09-07T12:07:19.103Z,4.35
2022-09-07T12:10:06.588Z,3.85
2022-09-07T12:12:52.627Z,4.60
2022-09-07T12:15:22.995Z,3.90
2022-09-07T12:18:17.326Z,3.88
2022-09-07T12:20:47.140Z,4.40
2022-09-07T12:23:17.313Z,4.47
2022-09-07T12:25:49.817Z,4.07
2022-09-07T12:28:25.883Z,4.05
2022-09-07T12:30:55.753Z,3.40
2022-09-07T12:33:26.319Z,5.78
2022-09-07T12:35:57.028Z,3.45
2022-09-07T12:38:30.308Z,3.90
2022-09-07T12:43:42.885Z,3.03
2022-09-07T12:46:19.600Z,3.38
2022-09-07T12:49:04.744Z,3.67
2022-09-07T12:54:24.320Z,4.25
2022-09-07T12:57:35.954Z,4.20
2022-09-07T13:00:17.040Z,4.45
2022-09-07T13:06:12.400Z,3.95
2022-09-07T13:08:51.676Z,3.35
2022-09-07T13:11:21.513Z,4.95
2022-09-07T13:14:23.250Z,3.58
2022-09-07T13:17:28.643Z,3.45
2022-09-07T13:19:55.849Z,6.32
2022-09-07T13:22:35.448Z,3.22
2022-09-07T13:25:20.307Z,3.15
2022-09-07T13:28:19.412Z,3.55
2022-09-07T13:31:04.885Z,5.00
2022-09-07T13:33:35.144Z,3.88
2022-09-07T13:36:05.194Z,3.92
2022-09-07T13:38:36.759Z,2.75
2022-09-07T13:41:15.170Z,4.97
2022-09-07T13:43:48.486Z,4.75
2022-09-07T13:46:59.057Z,3.15
2022-09-07T13:49:44.428Z,3.38
2022-09-07T13:52:37.739Z,4.90
2022-09-07T13:55:26.767Z,2.97
2022-09-07T13:58:10.341Z,3.58
2022-09-07T14:00:49.096Z,4.65
2022-09-07T14:03:17.298Z,4.30
2022-09-07T14:05:44.396Z,3.55
2022-09-07T14:08:28.889Z,4.10
2022-09-07T14:10:56.003Z,3.10
2022-09-07T14:13:23.112Z,4.28
2022-09-07T14:15:51.019Z,3.67
2022-09-07T14:18:36.862Z,3.20
2022-09-07T14:21:04.837Z,3.03
2022-09-07T14:23:35.234Z,3.03
2022-09-07T14:26:34.798Z,3.03
2022-09-07T14:29:02.104Z,3.45
2022-09-07T14:31:29.428Z,3.72
2022-09-07T14:33:59.017Z,4.38
2022-09-07T14:36:46.963Z,4.72
2022-09-07T14:39:17.154Z,3.38
2022-09-07T14:41:44.988Z,4.53
2022-09-07T14:44:33.624Z,3.63
2022-09-07T14:47:07.613Z,4.18
2022-09-07T14:49:35.101Z,3.78
2022-09-07T14:52:02.803Z,4.97
2022-09-07T14:54:32.780Z,2.70
2022-09-07T14:57:06.775Z,4.78
2022-09-07T14:59:45.512Z,3.92
2022-09-07T15:02:18.740Z,4.63
2022-09-07T15:04:47.526Z,3.10
2022-09-07T15:07:38.953Z,3.10
2022-09-07T15:10:15.636Z,4.28
2022-09-07T15:12:44.308Z,5.25
2022-09-07T15:15:27.118Z,4.30
2022-09-07T15:18:00.821Z,3.72
2022-09-07T15:20:33.238Z,3.95
2022-09-07T15:23:01.525Z,3.53
2022-09-07T15:25:29.107Z,3.95
2022-09-07T15:27:56.782Z,4.32
2022-09-07T15:30:25.295Z,4.10
2022-09-07T15:32:52.467Z,3.65
2022-09-07T15:35:19.807Z,4.20
2022-09-07T15:38:04.445Z,3.60
2022-09-07T15:41:03.765Z,3.80
2022-09-07T15:43:29.131Z,6.05
2022-09-07T15:45:56.441Z,4.88
2022-09-07T15:48:27.963Z,5.75
2022-09-07T15:52:04.845Z,4.60
2022-09-07T15:54:12.707Z,3.20
2022-09-07T15:56:40.936Z,4.63
2022-09-07T15:59:10.296Z,4.65
2022-09-07T16:01:55.306Z,4.90
2022-09-07T16:04:24.123Z,6.45
2022-09-07T16:06:51.444Z,4.68
2022-09-07T16:09:21.895Z,4.78
2022-09-07T16:11:50.113Z,3.78
2022-09-07T16:14:18.040Z,6.03
2022-09-07T16:19:34.933Z,4.40
2022-09-07T16:22:03.323Z,7.13
2022-09-07T16:24:30.564Z,4.97
2022-09-07T16:26:57.757Z,6.00
2022-09-07T16:29:24.880Z,7.55
2022-09-07T16:34:40.246Z,9.77
2022-09-07T16:37:07.962Z,8.13
2022-09-07T16:39:35.153Z,8.52
2022-09-07T16:42:02.361Z,7.32
2022-09-07T16:44:29.528Z,6.45
2022-09-07T16:46:56.725Z,8.50
2022-09-07T16:49:23.824Z,6.68
2022-09-07T16:51:51.040Z,5.80
2022-09-07T16:54:18.160Z,7.32
2022-09-07T16:56:45.269Z,5.22
2022-09-07T16:59:17.066Z,5.57
2022-09-07T17:01:44.183Z,6.72
2022-09-07T17:04:11.857Z,5.45
2022-09-07T17:06:40.299Z,6.10
2022-09-07T17:09:08.085Z,5.68
2022-09-07T17:11:36.582Z,5.35
2022-09-07T17:14:06.594Z,5.75
2022-09-07T17:16:37.208Z,5.38
2022-09-07T17:21:55.371Z,5.85
2022-09-07T17:24:24.534Z,4.65
2022-09-07T17:26:51.605Z,5.63
2022-09-07T17:29:18.953Z,6.47
2022-09-07T17:34:33.211Z,7.35
2022-09-07T17:37:01.175Z,4.28
2022-09-07T17:39:29.607Z,5.68
2022-09-07T17:41:57.081Z,6.05
2022-09-07T17:44:24.400Z,6.32
2022-09-07T17:46:51.773Z,5.85
2022-09-07T17:49:19.183Z,6.05
2022-09-07T17:51:46.774Z,6.38
2022-09-07T17:54:17.495Z,6.60
2022-09-07T17:56:46.022Z,6.25
2022-09-07T18:02:00.992Z,6.70
2022-09-07T18:04:28.516Z,6.45
2022-09-07T18:06:56.318Z,6.70
2022-09-07T18:09:23.510Z,9.35
2022-09-07T18:11:50.980Z,8.98
2022-09-07T18:14:19.420Z,8.27
2022-09-07T18:16:49.302Z,7.10
2022-09-07T18:19:18.283Z,5.93
2022-09-07T18:21:46.588Z,7.55
2022-09-07T18:24:19.947Z,6.85
2022-09-07T18:29:29.519Z,6.30
2022-09-07T18:31:58.702Z,7.57
2022-09-07T18:34:26.253Z,7.90
2022-09-07T18:36:53.843Z,8.20
2022-09-07T18:39:22.689Z,31.50
2022-09-07T18:41:49.887Z,55.72
2022-09-07T18:47:06.422Z,8.48
2022-09-07T18:49:33.521Z,8.88
2022-09-07T18:54:48.320Z,8.90
2022-09-07T18:57:15.706Z,7.60
2022-09-07T18:59:43.074Z,10.55
2022-09-07T19:02:10.888Z,8.30
2022-09-07T19:07:29.558Z,6.50
2022-09-07T19:09:57.163Z,8.13
2022-09-07T19:12:24.690Z,8.82
2022-09-07T19:14:51.893Z,9.57
2022-09-07T19:17:19.529Z,9.55
2022-09-07T19:19:47.000Z,9.82
2022-09-07T19:22:14.088Z,9.15
2022-09-07T19:24:41.149Z,14.35
2022-09-07T19:27:08.308Z,9.07
2022-09-07T19:29:35.538Z,7.68
2022-09-07T19:32:06.944Z,10.30
2022-09-07T19:34:35.141Z,12.93
2022-09-07T19:37:02.858Z,11.82
2022-09-07T19:39:30.098Z,13.50
2022-09-07T19:41:57.348Z,13.93
2022-09-07T19:44:24.630Z,15.15
2022-09-07T19:46:51.703Z,12.07
2022-09-07T19:49:19.103Z,13.30
2022-09-07T19:51:46.324Z,11.73
2022-09-07T19:54:13.869Z,12.57
2022-09-07T19:56:44.996Z,14.43
2022-09-07T19:59:12.451Z,13.45
2022-09-07T20:01:40.741Z,11.43
2022-09-07T20:04:13.871Z,11.82
2022-09-07T20:06:43.745Z,13.77
2022-09-07T20:09:10.951Z,11.02
2022-09-07T20:11:39.354Z,12.77
2022-09-07T20:14:08.502Z,11.40
2022-09-07T20:16:39.491Z,8.60
2022-09-07T20:19:07.569Z,10.30
2022-09-07T20:21:36.930Z,12.23
2022-09-07T20:24:04.585Z,9.57
2022-09-07T20:26:32.567Z,10.90
2022-09-07T20:29:23.860Z,12.90
2022-09-07T20:31:47.508Z,13.95
2022-09-07T20:34:14.697Z,10.27
2022-09-07T20:36:41.892Z,12.68
2022-09-07T20:39:15.277Z,8.75
2022-09-07T20:44:09.505Z,12.80
2022-09-07T20:46:36.808Z,10.07
2022-09-07T20:49:05.277Z,12.95
2022-09-07T20:51:32.568Z,11.57
2022-09-07T20:53:59.920Z,12.50
2022-09-07T20:56:28.726Z,12.38
2022-09-07T20:58:58.073Z,11.25
2022-09-07T21:01:25.380Z,9.82
2022-09-07T21:03:55.233Z,10.05
2022-09-07T21:06:24.193Z,13.98
2022-09-07T21:08:52.290Z,9.68
2022-09-07T21:11:25.308Z,20.73
2022-09-07T21:14:08.197Z,10.70
2022-09-07T21:16:36.529Z,16.27
2022-09-07T21:19:06.956Z,10.05
2022-09-07T21:21:38.878Z,13.13
2022-09-07T21:24:07.260Z,11.63
2022-09-07T21:26:34.407Z,12.43
2022-09-07T21:29:03.958Z,10.13
2022-09-07T21:31:32.637Z,15.02
2022-09-07T21:34:01.763Z,15.95
2022-09-07T21:36:29.560Z,10.95
2022-09-07T21:38:57.212Z,11.52
2022-09-07T21:41:25.508Z,11.85
2022-09-07T21:44:01.372Z,9.85
2022-09-07T21:46:31.350Z,15.70
2022-09-07T21:48:59.628Z,17.08
2022-09-07T21:51:27.448Z,19.52
2022-09-07T21:54:01.568Z,26.80
2022-09-07T21:56:30.348Z,33.60
2022-09-07T21:58:59.577Z,25.33
2022-09-07T22:01:28.301Z,24.08
2022-09-07T22:03:58.444Z,20.52
2022-09-07T22:06:27.958Z,18.08
2022-09-07T22:08:55.997Z,15.73
2022-09-07T22:11:24.890Z,10.02
2022-09-07T22:14:01.911Z,10.85
2022-09-07T22:16:30.656Z,7.18
2022-09-07T22:18:58.025Z,8.55
2022-09-07T22:21:27.720Z,8.23
2022-09-07T22:23:57.284Z,6.95
2022-09-07T22:26:27.609Z,8.38
2022-09-07T22:28:55.450Z,6.05
2022-09-07T22:31:30.612Z,9.45
2022-09-07T22:33:58.841Z,7.35
2022-09-07T22:36:28.667Z,9.23
2022-09-07T22:39:01.345Z,9.93
2022-09-07T22:41:34.196Z,12.27
2022-09-07T22:44:01.452Z,10.82
2022-09-07T22:46:30.479Z,9.07
2022-09-07T22:48:58.880Z,9.25
2022-09-07T22:51:26.887Z,10.55
2022-09-07T22:53:54.993Z,6.00
2022-09-07T22:56:32.755Z,6.75
2022-09-07T22:59:10.544Z,8.45
2022-09-07T23:01:37.963Z,6.18
2022-09-07T23:04:05.923Z,6.15
2022-09-07T23:06:41.476Z,8.07
2022-09-07T23:09:11.536Z,7.20
2022-09-07T23:11:39.262Z,5.90
2022-09-07T23:14:11.759Z,6.63
2022-09-07T23:16:39.224Z,7.60
2022-09-07T23:19:07.004Z,6.10
2022-09-07T23:21:34.147Z,6.32
2022-09-07T23:24:02.793Z,4.85
2022-09-07T23:26:31.435Z,6.90
2022-09-07T23:29:01.052Z,8.57
2022-09-07T23:31:29.740Z,8.90
2022-09-07T23:33:57.946Z,7.55
2022-09-07T23:36:25.388Z,6.68
2022-09-07T23:38:54.904Z,6.55
2022-09-07T23:41:22.541Z,7.30
2022-09-07T23:43:49.589Z,6.72
2022-09-07T23:46:17.174Z,6.47
2022-09-07T23:48:45.182Z,9.75
2022-09-07T23:51:13.206Z,6.60
2022-09-07T23:53:41.097Z,7.18
2022-09-07T23:56:08.297Z,7.22
2022-09-07T23:58:35.346Z,5.13
